createdAt,value
2022-09-13T00:00:52.489Z,95.89
2022-09-13T00:01:52.459Z,95.68
2022-09-13T00:02:52.409Z,95.78
2022-09-13T00:03:52.427Z,96.09
2022-09-13T00:04:52.431Z,95.78
2022-09-13T00:05:52.410Z,95.89
2022-09-13T00:06:52.398Z,96.09
2022-09-13T00:07:52.390Z,96.20
2022-09-13T00:08:52.372Z,95.99
2022-09-13T00:09:52.391Z,95.99
2022-09-13T00:10:52.383Z,96.09
2022-09-13T00:11:52.376Z,96.20
2022-09-13T00:12:52.362Z,96.20
2022-09-13T00:13:52.362Z,95.99
2022-09-13T00:14:52.367Z,95.89
2022-09-13T00:15:52.373Z,95.68
2022-09-13T00:16:52.363Z,96.09
2022-09-13T00:17:52.354Z,96.30
2022-09-13T00:18:52.363Z,96.41
2022-09-13T00:19:52.364Z,96.41
2022-09-13T00:20:52.367Z,96.41
2022-09-13T00:21:52.354Z,96.50
2022-09-13T00:22:52.354Z,96.41
2022-09-13T00:23:52.364Z,96.50
2022-09-13T00:24:52.374Z,96.50
2022-09-13T00:25:52.383Z,96.45
2022-09-13T00:26:52.364Z,96.45
2022-09-13T00:27:52.363Z,97.06
2022-09-13T00:28:52.364Z,97.17
2022-09-13T00:29:52.369Z,97.17
2022-09-13T00:30:52.365Z,96.96
2022-09-13T00:31:52.388Z,96.66
2022-09-13T00:32:52.347Z,96.34
2022-09-13T00:33:52.359Z,96.24
2022-09-13T00:34:52.346Z,96.24
2022-09-13T00:35:52.354Z,96.45
2022-09-13T00:36:52.327Z,96.75
2022-09-13T00:37:52.326Z,96.75
2022-09-13T00:38:52.307Z,96.86
2022-09-13T00:39:52.352Z,96.86
2022-09-13T00:40:52.328Z,96.75
2022-09-13T00:41:52.317Z,96.55
2022-09-13T00:42:52.289Z,96.34
2022-09-13T00:43:52.309Z,96.34
2022-09-13T00:44:52.299Z,96.55
2022-09-13T00:45:52.330Z,96.55
2022-09-13T00:46:52.298Z,96.66
2022-09-13T00:47:52.290Z,96.96
2022-09-13T00:48:52.288Z,97.06
2022-09-13T00:49:52.309Z,96.86
2022-09-13T00:50:52.300Z,96.55
2022-09-13T00:51:52.311Z,96.55
2022-09-13T00:52:52.313Z,96.45
2022-09-13T00:53:52.309Z,96.03
2022-09-13T00:54:52.310Z,95.67
2022-09-13T00:55:52.313Z,95.56
2022-09-13T00:56:52.313Z,95.56
2022-09-13T00:57:52.312Z,95.87
2022-09-13T00:58:52.313Z,96.39
2022-09-13T00:59:52.311Z,96.70
2022-09-13T01:00:52.377Z,96.80
2022-09-13T01:01:52.343Z,96.70
2022-09-13T01:02:52.305Z,97.21
2022-09-13T01:03:52.304Z,97.47
2022-09-13T01:04:52.304Z,97.42
2022-09-13T01:05:52.306Z,97.52
2022-09-13T01:06:52.305Z,97.47
2022-09-13T01:07:52.316Z,97.21
2022-09-13T01:08:52.305Z,97.01
2022-09-13T01:09:52.320Z,96.95
2022-09-13T01:10:52.317Z,97.01
2022-09-13T01:11:52.306Z,97.01
2022-09-13T01:12:52.319Z,97.01
2022-09-13T01:13:52.319Z,96.91
2022-09-13T01:14:52.316Z,96.70
2022-09-13T01:15:52.307Z,96.53
2022-09-13T01:16:52.347Z,96.64
2022-09-13T01:17:52.312Z,96.53
2022-09-13T01:18:52.308Z,96.44
2022-09-13T01:19:52.307Z,96.33
2022-09-13T01:20:52.307Z,96.23
2022-09-13T01:21:52.317Z,96.53
2022-09-13T01:22:52.309Z,96.64
2022-09-13T01:23:52.318Z,96.53
2022-09-13T01:24:52.298Z,96.44
2022-09-13T01:25:52.300Z,96.44
2022-09-13T01:26:52.300Z,96.44
2022-09-13T01:27:52.307Z,96.64
2022-09-13T01:28:52.310Z,96.64
2022-09-13T01:29:52.308Z,96.53
2022-09-13T01:30:52.301Z,96.23
2022-09-13T01:31:52.364Z,96.33
2022-09-13T01:32:52.302Z,96.44
2022-09-13T01:33:52.321Z,96.53
2022-09-13T01:34:52.301Z,96.64
2022-09-13T01:35:52.312Z,96.95
2022-09-13T01:36:52.310Z,97.16
2022-09-13T01:37:52.313Z,97.05
2022-09-13T01:38:52.323Z,97.47
2022-09-13T01:39:52.327Z,97.47
2022-09-13T01:40:52.307Z,97.26
2022-09-13T01:41:52.313Z,97.26
2022-09-13T01:42:52.294Z,97.26
2022-09-13T01:43:52.304Z,97.20
2022-09-13T01:44:52.302Z,97.30
2022-09-13T01:45:52.343Z,97.20
2022-09-13T01:46:52.274Z,97.20
2022-09-13T01:47:52.282Z,97.41
2022-09-13T01:48:52.264Z,97.47
2022-09-13T01:49:52.272Z,97.51
2022-09-13T01:50:52.245Z,97.61
2022-09-13T01:51:52.246Z,97.82
2022-09-13T01:52:52.235Z,97.92
2022-09-13T01:53:52.236Z,97.92
2022-09-13T01:54:52.237Z,97.92
2022-09-13T01:55:52.227Z,97.51
2022-09-13T01:56:52.226Z,97.67
2022-09-13T01:57:52.229Z,97.72
2022-09-13T01:58:52.245Z,97.72
2022-09-13T01:59:52.247Z,97.92
2022-09-13T02:00:52.295Z,97.98
2022-09-13T02:01:52.291Z,97.92
2022-09-13T02:02:52.218Z,98.13
2022-09-13T02:03:52.218Z,98.29
2022-09-13T02:04:52.209Z,98.19
2022-09-13T02:05:52.227Z,97.98
2022-09-13T02:06:52.208Z,97.77
2022-09-13T02:07:52.209Z,97.56
2022-09-13T02:08:52.191Z,97.47
2022-09-13T02:09:52.189Z,97.26
2022-09-13T02:10:52.181Z,97.16
2022-09-13T02:11:52.170Z,96.89
2022-09-13T02:12:52.152Z,96.58
2022-09-13T02:13:52.151Z,96.69
2022-09-13T02:14:52.140Z,96.69
2022-09-13T02:15:52.160Z,96.69
2022-09-13T02:16:52.268Z,96.89
2022-09-13T02:17:52.132Z,97.20
2022-09-13T02:18:52.122Z,97.20
2022-09-13T02:19:52.123Z,97.30
2022-09-13T02:20:52.131Z,97.30
2022-09-13T02:21:52.121Z,97.20
2022-09-13T02:22:52.113Z,97.09
2022-09-13T02:23:52.116Z,96.89
2022-09-13T02:24:52.104Z,96.89
2022-09-13T02:25:52.110Z,96.99
2022-09-13T02:26:52.093Z,97.09
2022-09-13T02:27:52.084Z,96.89
2022-09-13T02:28:52.076Z,96.79
2022-09-13T02:29:52.075Z,96.83
2022-09-13T02:30:52.076Z,96.94
2022-09-13T02:31:52.096Z,97.04
2022-09-13T02:32:52.057Z,97.30
2022-09-13T02:33:52.064Z,97.34
2022-09-13T02:34:52.054Z,97.34
2022-09-13T02:35:52.054Z,97.09
2022-09-13T02:36:52.057Z,97.09
2022-09-13T02:37:52.045Z,97.09
2022-09-13T02:38:52.037Z,96.99
2022-09-13T02:39:52.076Z,96.94
2022-09-13T02:40:52.028Z,97.09
2022-09-13T02:41:52.038Z,96.99
2022-09-13T02:42:52.028Z,97.09
2022-09-13T02:43:52.027Z,97.14
2022-09-13T02:44:52.019Z,97.04
2022-09-13T02:45:52.069Z,96.94
2022-09-13T02:46:52.022Z,97.04
2022-09-13T02:47:52.019Z,97.04
2022-09-13T02:48:51.999Z,96.89
2022-09-13T02:49:52.009Z,96.69
2022-09-13T02:50:51.998Z,97.14
2022-09-13T02:51:52.123Z,97.25
2022-09-13T02:52:51.981Z,97.34
2022-09-13T02:53:51.982Z,97.41
2022-09-13T02:54:51.972Z,97.61
2022-09-13T02:55:51.981Z,97.61
2022-09-13T02:56:51.974Z,97.41
2022-09-13T02:57:51.980Z,97.41
2022-09-13T02:58:51.962Z,97.51
2022-09-13T02:59:51.963Z,97.45
2022-09-13T03:00:52.019Z,97.30
2022-09-13T03:01:52.024Z,97.20
2022-09-13T03:02:51.962Z,97.14
2022-09-13T03:03:51.952Z,96.94
2022-09-13T03:04:51.943Z,97.04
2022-09-13T03:05:51.951Z,96.83
2022-09-13T03:06:51.933Z,96.83
2022-09-13T03:07:51.953Z,96.83
2022-09-13T03:08:51.934Z,96.94
2022-09-13T03:09:51.937Z,97.14
2022-09-13T03:10:51.934Z,97.25
2022-09-13T03:11:51.941Z,97.14
2022-09-13T03:12:51.963Z,97.14
2022-09-13T03:13:51.962Z,97.04
2022-09-13T03:14:51.965Z,96.83
2022-09-13T03:15:51.965Z,96.73
2022-09-13T03:16:52.040Z,97.08
2022-09-13T03:17:51.988Z,97.14
2022-09-13T03:18:51.964Z,97.04
2022-09-13T03:19:51.974Z,96.94
2022-09-13T03:20:51.969Z,96.73
2022-09-13T03:21:51.977Z,96.56
2022-09-13T03:22:51.977Z,96.56
2022-09-13T03:23:51.987Z,96.56
2022-09-13T03:24:51.976Z,96.47
2022-09-13T03:25:51.975Z,96.36
2022-09-13T03:26:51.972Z,96.26
2022-09-13T03:27:51.979Z,96.77
2022-09-13T03:28:51.986Z,96.98
2022-09-13T03:29:52.004Z,97.08
2022-09-13T03:30:51.988Z,96.98
2022-09-13T03:31:52.011Z,96.77
2022-09-13T03:32:51.987Z,96.67
2022-09-13T03:33:52.010Z,96.77
2022-09-13T03:34:51.990Z,96.77
2022-09-13T03:35:52.001Z,96.98
2022-09-13T03:36:51.998Z,97.71
2022-09-13T03:37:52.000Z,97.91
2022-09-13T03:38:51.990Z,97.81
2022-09-13T03:39:52.034Z,97.71
2022-09-13T03:40:51.992Z,97.50
2022-09-13T03:41:51.993Z,97.50
2022-09-13T03:42:51.989Z,97.50
2022-09-13T03:43:51.983Z,97.50
2022-09-13T03:44:51.987Z,97.50
2022-09-13T03:45:52.009Z,97.23
2022-09-13T03:46:51.973Z,96.88
2022-09-13T03:47:51.984Z,96.82
2022-09-13T03:48:51.975Z,96.92
2022-09-13T03:49:51.996Z,97.02
2022-09-13T03:50:51.982Z,97.23
2022-09-13T03:51:51.994Z,97.23
2022-09-13T03:52:51.984Z,97.33
2022-09-13T03:53:51.986Z,97.13
2022-09-13T03:54:52.004Z,97.13
2022-09-13T03:55:51.999Z,97.33
2022-09-13T03:56:51.997Z,97.33
2022-09-13T03:57:52.005Z,97.54
2022-09-13T03:58:52.005Z,97.54
2022-09-13T03:59:52.033Z,97.44
2022-09-13T04:00:52.069Z,97.54
2022-09-13T04:01:52.045Z,97.39
2022-09-13T04:02:52.026Z,97.23
2022-09-13T04:03:56.340Z,97.13
2022-09-13T04:04:52.055Z,97.13
2022-09-13T04:05:52.047Z,97.33
2022-09-13T04:06:52.047Z,97.85
2022-09-13T04:07:52.058Z,98.06
2022-09-13T04:08:52.055Z,98.16
2022-09-13T04:09:52.097Z,98.06
2022-09-13T04:10:52.078Z,97.85
2022-09-13T04:11:52.099Z,97.64
2022-09-13T04:12:52.090Z,97.60
2022-09-13T04:13:52.110Z,97.44
2022-09-13T04:14:52.130Z,97.33
2022-09-13T04:15:52.117Z,97.13
2022-09-13T04:16:52.128Z,96.92
2022-09-13T04:17:52.129Z,96.82
2022-09-13T04:18:52.138Z,97.33
2022-09-13T04:19:52.156Z,97.44
2022-09-13T04:20:52.148Z,97.64
2022-09-13T04:21:52.141Z,97.64
2022-09-13T04:22:52.151Z,97.64
2022-09-13T04:23:52.152Z,97.75
2022-09-13T04:24:52.189Z,97.96
2022-09-13T04:25:52.171Z,97.75
2022-09-13T04:26:52.179Z,97.85
2022-09-13T04:27:52.173Z,98.16
2022-09-13T04:28:52.182Z,98.47
2022-09-13T04:29:52.205Z,98.57
2022-09-13T04:30:52.191Z,98.53
2022-09-13T04:31:52.237Z,98.57
2022-09-13T04:32:52.205Z,98.43
2022-09-13T04:33:52.207Z,98.32
2022-09-13T04:34:52.223Z,98.32
2022-09-13T04:35:52.215Z,98.32
2022-09-13T04:36:52.248Z,98.22
2022-09-13T04:37:52.228Z,98.11
2022-09-13T04:38:52.235Z,98.01
2022-09-13T04:39:52.304Z,97.91
2022-09-13T04:40:52.246Z,98.32
2022-09-13T04:41:52.252Z,98.32
2022-09-13T04:42:52.262Z,98.32
2022-09-13T04:43:52.266Z,98.11
2022-09-13T04:44:52.296Z,98.11
2022-09-13T04:45:52.341Z,98.22
2022-09-13T04:46:52.288Z,98.43
2022-09-13T04:47:52.287Z,98.43
2022-09-13T04:48:52.301Z,98.32
2022-09-13T04:49:52.277Z,98.22
2022-09-13T04:50:52.307Z,98.11
2022-09-13T04:51:52.293Z,98.32
2022-09-13T04:52:52.287Z,98.53
2022-09-13T04:53:52.268Z,98.74
2022-09-13T04:54:52.277Z,98.63
2022-09-13T04:55:52.268Z,98.74
2022-09-13T04:56:52.257Z,98.74
2022-09-13T04:57:52.249Z,98.74
2022-09-13T04:58:52.250Z,98.74
2022-09-13T04:59:52.246Z,98.63
2022-09-13T05:00:52.299Z,98.63
2022-09-13T05:01:52.289Z,98.58
2022-09-13T05:02:52.240Z,98.63
2022-09-13T05:03:52.231Z,98.69
2022-09-13T05:04:52.239Z,98.63
2022-09-13T05:05:52.248Z,98.49
2022-09-13T05:06:52.242Z,98.38
2022-09-13T05:07:52.251Z,98.49
2022-09-13T05:08:52.252Z,98.69
2022-09-13T05:09:52.252Z,98.79
2022-09-13T05:10:52.273Z,98.79
2022-09-13T05:11:52.263Z,98.79
2022-09-13T05:12:52.286Z,98.96
2022-09-13T05:13:52.273Z,99.06
2022-09-13T05:14:52.292Z,99.16
2022-09-13T05:15:52.335Z,99.26
2022-09-13T05:16:52.292Z,99.16
2022-09-13T05:17:52.285Z,99.16
2022-09-13T05:18:52.375Z,99.06
2022-09-13T05:19:52.293Z,99.06
2022-09-13T05:20:52.306Z,98.96
2022-09-13T05:21:52.284Z,98.91
2022-09-13T05:22:52.286Z,98.91
2022-09-13T05:23:52.292Z,98.80
2022-09-13T05:24:52.295Z,98.70
2022-09-13T05:25:52.314Z,98.70
2022-09-13T05:26:52.305Z,98.70
2022-09-13T05:27:52.296Z,98.60
2022-09-13T05:28:52.297Z,98.55
2022-09-13T05:29:52.297Z,98.55
2022-09-13T05:30:52.310Z,98.55
2022-09-13T05:31:52.305Z,98.66
2022-09-13T05:32:52.297Z,98.76
2022-09-13T05:33:52.289Z,98.66
2022-09-13T05:34:52.301Z,98.76
2022-09-13T05:35:52.278Z,98.71
2022-09-13T05:36:54.477Z,98.71
2022-09-13T05:37:52.267Z,98.71
2022-09-13T05:39:06.483Z,98.71
2022-09-13T05:40:10.107Z,98.71
2022-09-13T05:40:53.320Z,98.82
2022-09-13T05:41:52.268Z,98.88
2022-09-13T05:42:52.258Z,98.77
2022-09-13T05:43:56.035Z,98.77
2022-09-13T05:44:53.249Z,98.88
2022-09-13T05:45:52.280Z,98.97
2022-09-13T05:46:52.252Z,98.93
2022-09-13T05:47:52.239Z,98.93
2022-09-13T05:48:52.230Z,99.14
2022-09-13T05:50:09.342Z,99.24
2022-09-13T05:50:58.187Z,99.24
2022-09-13T05:51:53.214Z,99.30
2022-09-13T05:52:52.192Z,99.30
2022-09-13T05:53:52.172Z,99.30
2022-09-13T05:54:52.173Z,99.30
2022-09-13T05:55:52.163Z,99.30
2022-09-13T05:56:52.172Z,99.30
2022-09-13T05:57:52.151Z,99.25
2022-09-13T05:58:52.143Z,99.25
2022-09-13T05:59:52.133Z,99.25
2022-09-13T06:00:52.115Z,99.25
2022-09-13T06:01:52.141Z,99.25
2022-09-13T06:02:52.126Z,99.21
2022-09-13T06:03:52.067Z,99.10
2022-09-13T06:04:52.056Z,99.10
2022-09-13T06:05:52.035Z,99.21
2022-09-13T06:06:52.042Z,99.05
2022-09-13T06:07:52.016Z,99.05
2022-09-13T06:08:52.007Z,99.05
2022-09-13T06:09:51.986Z,99.05
2022-09-13T06:10:51.974Z,99.05
2022-09-13T06:11:51.957Z,98.96
2022-09-13T06:12:51.929Z,98.96
2022-09-13T06:13:51.923Z,98.91
2022-09-13T06:14:51.896Z,98.91
2022-09-13T06:15:51.892Z,98.91
2022-09-13T06:16:51.858Z,99.01
2022-09-13T06:17:51.827Z,98.96
2022-09-13T06:18:51.808Z,98.96
2022-09-13T06:19:51.772Z,98.96
2022-09-13T06:20:51.749Z,98.96
2022-09-13T06:21:51.729Z,98.82
2022-09-13T06:22:51.701Z,98.82
2022-09-13T06:23:51.679Z,98.82
2022-09-13T06:24:51.661Z,98.77
2022-09-13T06:25:51.630Z,98.67
2022-09-13T06:26:51.622Z,98.67
2022-09-13T06:27:51.579Z,98.57
2022-09-13T06:28:51.704Z,98.52
2022-09-13T06:29:51.521Z,98.62
2022-09-13T06:30:51.546Z,98.68
2022-09-13T06:31:51.493Z,98.68
2022-09-13T06:32:51.441Z,98.47
2022-09-13T06:33:51.402Z,98.37
2022-09-13T06:34:51.386Z,98.27
2022-09-13T06:35:51.324Z,98.22
2022-09-13T06:36:51.294Z,98.12
2022-09-13T06:37:51.270Z,98.02
2022-09-13T06:38:51.214Z,97.91
2022-09-13T06:39:51.191Z,97.91
2022-09-13T06:40:51.143Z,97.77
2022-09-13T06:41:51.095Z,97.87
2022-09-13T06:42:51.073Z,97.87
2022-09-13T06:43:51.016Z,97.97
2022-09-13T06:44:50.985Z,97.92
2022-09-13T06:45:50.983Z,97.82
2022-09-13T06:46:50.920Z,97.67
2022-09-13T06:47:50.891Z,97.57
2022-09-13T06:48:50.836Z,97.47
2022-09-13T06:49:50.800Z,97.27
2022-09-13T06:50:50.758Z,97.27
2022-09-13T06:51:50.709Z,97.22
2022-09-13T06:52:50.678Z,97.33
2022-09-13T06:53:50.632Z,97.42
2022-09-13T06:54:50.590Z,97.53
2022-09-13T06:55:50.549Z,97.79
2022-09-13T06:56:50.501Z,97.99
2022-09-13T06:57:50.472Z,98.20
2022-09-13T06:58:50.637Z,98.36
2022-09-13T06:59:50.370Z,98.46
2022-09-13T07:00:55.435Z,98.36
2022-09-13T07:01:51.327Z,98.25
2022-09-13T07:02:50.231Z,98.05
2022-09-13T07:03:50.192Z,98.05
2022-09-13T07:04:50.137Z,97.90
2022-09-13T07:05:50.091Z,97.90
2022-09-13T07:06:50.043Z,97.90
2022-09-13T07:07:49.983Z,97.90
2022-09-13T07:08:50.145Z,97.86
2022-09-13T07:09:49.884Z,97.86
2022-09-13T07:10:49.853Z,97.86
2022-09-13T07:11:49.805Z,97.86
2022-09-13T07:12:49.760Z,97.81
2022-09-13T07:13:49.696Z,97.71
2022-09-13T07:14:49.635Z,97.61
2022-09-13T07:15:49.603Z,97.61
2022-09-13T07:16:49.523Z,97.50
2022-09-13T07:17:49.465Z,97.40
2022-09-13T07:18:49.517Z,97.40
2022-09-13T07:19:49.348Z,97.09
2022-09-13T07:20:49.297Z,97.09
2022-09-13T07:21:49.254Z,97.05
2022-09-13T07:22:49.168Z,97.16
2022-09-13T07:23:49.108Z,97.09
2022-09-13T07:24:49.066Z,97.09
2022-09-13T07:25:48.986Z,96.95
2022-09-13T07:26:48.928Z,97.05
2022-09-13T07:27:48.867Z,97.16
2022-09-13T07:28:48.881Z,97.16
2022-09-13T07:29:48.749Z,97.16
2022-09-13T07:30:48.722Z,97.00
2022-09-13T07:31:48.613Z,96.91
2022-09-13T07:32:48.576Z,96.76
2022-09-13T07:33:48.496Z,96.66
2022-09-13T07:34:48.436Z,96.55
2022-09-13T07:35:48.349Z,96.61
2022-09-13T07:36:48.287Z,96.71
2022-09-13T07:37:48.213Z,96.71
2022-09-13T07:38:48.231Z,96.26
2022-09-13T07:39:48.144Z,96.46
2022-09-13T07:40:48.004Z,96.22
2022-09-13T07:41:47.938Z,96.72
2022-09-13T07:42:47.854Z,96.17
2022-09-13T07:43:47.777Z,94.70
2022-09-13T07:44:47.713Z,93.48
2022-09-13T07:45:47.606Z,93.19
2022-09-13T07:46:47.525Z,92.68
2022-09-13T07:47:47.436Z,92.24
2022-09-13T07:48:47.347Z,90.41
2022-09-13T07:49:47.259Z,88.13
2022-09-13T07:50:47.169Z,89.04
2022-09-13T07:51:47.078Z,88.48
2022-09-13T07:52:47.003Z,88.89
2022-09-13T07:53:46.869Z,89.59
2022-09-13T07:54:46.780Z,89.59
2022-09-13T07:55:46.699Z,89.25
2022-09-13T07:56:46.593Z,91.17
2022-09-13T07:57:46.483Z,91.17
2022-09-13T07:58:46.408Z,90.47
2022-09-13T07:59:46.281Z,90.42
2022-09-13T08:00:46.202Z,89.61
2022-09-13T08:01:46.231Z,89.47
2022-09-13T08:02:46.073Z,89.57
2022-09-13T08:03:45.897Z,88.66
2022-09-13T08:04:45.760Z,89.67
2022-09-13T08:05:45.661Z,89.73
2022-09-13T08:06:45.543Z,90.18
2022-09-13T08:07:45.446Z,88.66
2022-09-13T08:08:45.334Z,88.76
2022-09-13T08:09:45.225Z,89.17
2022-09-13T08:10:49.261Z,90.79
2022-09-13T08:11:45.025Z,90.99
2022-09-13T08:12:44.917Z,90.69
2022-09-13T08:13:44.814Z,90.08
2022-09-13T08:14:44.705Z,89.87
2022-09-13T08:15:44.628Z,90.48
2022-09-13T08:16:44.499Z,90.69
2022-09-13T08:17:44.398Z,90.03
2022-09-13T08:18:44.298Z,90.89
2022-09-13T08:19:44.188Z,90.99
2022-09-13T08:20:44.107Z,90.48
2022-09-13T08:21:43.988Z,89.17
2022-09-13T08:22:43.918Z,89.67
2022-09-13T08:23:43.791Z,90.38
2022-09-13T08:24:43.690Z,90.89
2022-09-13T08:25:43.611Z,90.69
2022-09-13T08:26:43.494Z,90.28
2022-09-13T08:27:43.393Z,91.30
2022-09-13T08:28:43.301Z,90.54
2022-09-13T08:29:43.193Z,90.95
2022-09-13T08:30:43.138Z,91.25
2022-09-13T08:31:43.013Z,91.05
2022-09-13T08:32:42.900Z,91.05
2022-09-13T08:33:46.252Z,89.43
2022-09-13T08:34:42.705Z,88.72
2022-09-13T08:35:42.625Z,89.73
2022-09-13T08:36:42.526Z,89.43
2022-09-13T08:37:42.445Z,89.59
2022-09-13T08:38:42.325Z,90.40
2022-09-13T08:39:42.282Z,90.20
2022-09-13T08:40:42.165Z,89.28
2022-09-13T08:41:42.175Z,89.95
2022-09-13T08:42:41.967Z,87.52
2022-09-13T08:43:41.884Z,87.73
2022-09-13T08:44:41.785Z,85.50
2022-09-13T08:45:41.688Z,86.91
2022-09-13T08:46:41.595Z,85.56
2022-09-13T08:47:41.519Z,87.68
2022-09-13T08:48:41.410Z,85.05
2022-09-13T08:49:41.319Z,85.16
2022-09-13T08:50:41.220Z,85.76
2022-09-13T08:51:41.138Z,86.02
2022-09-13T08:52:41.041Z,84.71
2022-09-13T08:53:40.962Z,83.90
2022-09-13T08:54:40.839Z,84.06
2022-09-13T08:55:40.752Z,85.38
2022-09-13T08:56:40.654Z,84.87
2022-09-13T08:57:40.564Z,83.15
2022-09-13T08:58:40.461Z,82.85
2022-09-13T08:59:40.363Z,83.22
2022-09-13T09:00:40.278Z,84.03
2022-09-13T09:01:40.220Z,83.98
2022-09-13T09:02:40.097Z,81.67
2022-09-13T09:03:39.975Z,82.07
2022-09-13T09:04:39.874Z,80.25
2022-09-13T09:05:39.785Z,79.64
2022-09-13T09:06:39.677Z,78.74
2022-09-13T09:07:39.598Z,80.55
2022-09-13T09:08:39.479Z,81.67
2022-09-13T09:09:39.379Z,80.15
2022-09-13T09:10:39.276Z,79.34
2022-09-13T09:11:39.178Z,80.25
2022-09-13T09:12:39.107Z,82.17
2022-09-13T09:13:38.988Z,81.82
2022-09-13T09:14:38.878Z,82.53
2022-09-13T09:15:38.831Z,81.82
2022-09-13T09:16:38.681Z,81.89
2022-09-13T09:17:38.591Z,80.58
2022-09-13T09:18:38.499Z,80.88
2022-09-13T09:19:38.392Z,79.87
2022-09-13T09:20:38.282Z,79.67
2022-09-13T09:21:38.190Z,77.86
2022-09-13T09:22:38.082Z,75.74
2022-09-13T09:23:38.090Z,77.35
2022-09-13T09:24:37.888Z,78.70
2022-09-13T09:25:37.784Z,78.59
2022-09-13T09:26:37.673Z,78.90
2022-09-13T09:27:37.574Z,78.80
2022-09-13T09:28:37.476Z,80.01
2022-09-13T09:29:37.362Z,77.89
2022-09-13T09:30:37.328Z,79.04
2022-09-13T09:31:37.155Z,79.85
2022-09-13T09:32:37.046Z,79.34
2022-09-13T09:33:36.959Z,80.65
2022-09-13T09:34:36.833Z,81.60
2022-09-13T09:35:36.737Z,82.61
2022-09-13T09:36:36.631Z,82.51
2022-09-13T09:37:36.535Z,82.31
2022-09-13T09:38:36.441Z,81.60
2022-09-13T09:39:36.349Z,81.23
2022-09-13T09:40:36.270Z,82.04
2022-09-13T09:41:36.129Z,82.65
2022-09-13T09:42:36.024Z,82.35
2022-09-13T09:43:35.932Z,83.46
2022-09-13T09:44:35.841Z,83.56
2022-09-13T09:45:35.730Z,82.45
2022-09-13T09:46:35.689Z,83.09
2022-09-13T09:47:35.523Z,84.11
2022-09-13T09:48:35.420Z,84.11
2022-09-13T09:49:35.343Z,83.70
2022-09-13T09:50:35.220Z,83.19
2022-09-13T09:51:35.124Z,83.70
2022-09-13T09:52:35.025Z,84.04
2022-09-13T09:53:36.837Z,84.65
2022-09-13T09:54:34.825Z,83.74
2022-09-13T09:55:34.757Z,85.05
2022-09-13T09:56:34.633Z,84.55
2022-09-13T09:57:34.536Z,85.46
2022-09-13T09:58:34.437Z,86.16
2022-09-13T09:59:34.347Z,84.55
2022-09-13T10:00:34.257Z,85.80
2022-09-13T10:01:34.227Z,86.31
2022-09-13T10:02:34.112Z,85.90
2022-09-13T10:03:33.966Z,85.60
2022-09-13T10:04:33.872Z,85.50
2022-09-13T10:05:33.786Z,84.59
2022-09-13T10:06:33.669Z,85.50
2022-09-13T10:07:33.578Z,86.71
2022-09-13T10:08:33.480Z,85.70
2022-09-13T10:09:33.372Z,86.91
2022-09-13T10:10:33.301Z,86.91
2022-09-13T10:11:33.179Z,87.02
2022-09-13T10:12:33.071Z,86.51
2022-09-13T10:13:32.979Z,87.58
2022-09-13T10:14:32.880Z,86.87
2022-09-13T10:15:32.802Z,86.57
2022-09-13T10:16:32.720Z,86.87
2022-09-13T10:17:32.594Z,86.37
2022-09-13T10:18:43.876Z,86.27
2022-09-13T10:19:33.393Z,86.87
2022-09-13T10:20:32.295Z,87.13
2022-09-13T10:21:32.207Z,85.22
2022-09-13T10:22:32.096Z,85.62
2022-09-13T10:23:31.997Z,85.62
2022-09-13T10:24:31.896Z,85.11
2022-09-13T10:25:31.806Z,84.77
2022-09-13T10:26:31.727Z,84.27
2022-09-13T10:27:31.618Z,84.57
2022-09-13T10:28:31.517Z,84.77
2022-09-13T10:29:31.418Z,84.77
2022-09-13T10:30:31.361Z,84.77
2022-09-13T10:31:31.242Z,84.37
2022-09-13T10:32:31.130Z,84.17
2022-09-13T10:33:31.039Z,85.08
2022-09-13T10:34:30.937Z,85.68
2022-09-13T10:35:30.840Z,85.99
2022-09-13T10:36:51.257Z,85.08
2022-09-13T10:37:31.642Z,85.64
2022-09-13T10:38:30.544Z,85.28
2022-09-13T10:39:30.449Z,84.47
2022-09-13T10:40:30.347Z,85.08
2022-09-13T10:41:30.264Z,85.68
2022-09-13T10:42:30.141Z,85.38
2022-09-13T10:43:30.042Z,85.88
2022-09-13T10:44:29.934Z,85.99
2022-09-13T10:45:29.865Z,84.37
2022-09-13T10:46:29.746Z,84.97
2022-09-13T10:47:29.626Z,85.78
2022-09-13T10:48:29.520Z,85.68
2022-09-13T10:49:29.425Z,85.99
2022-09-13T10:50:29.306Z,86.79
2022-09-13T10:51:29.208Z,85.48
2022-09-13T10:52:29.116Z,86.08
2022-09-13T10:53:29.144Z,86.39
2022-09-13T10:54:28.907Z,85.54
2022-09-13T10:55:28.814Z,85.34
2022-09-13T10:56:28.707Z,82.41
2022-09-13T10:57:28.626Z,84.83
2022-09-13T10:58:28.529Z,85.34
2022-09-13T10:59:28.419Z,85.60
2022-09-13T11:00:28.320Z,85.70
2022-09-13T11:01:28.252Z,84.59
2022-09-13T11:02:28.131Z,84.55
2022-09-13T11:03:28.050Z,84.55
2022-09-13T11:04:27.942Z,84.61
2022-09-13T11:05:27.815Z,84.61
2022-09-13T11:06:27.702Z,84.21
2022-09-13T11:07:27.611Z,84.11
2022-09-13T11:08:27.512Z,83.10
2022-09-13T11:09:27.400Z,83.20
2022-09-13T11:10:27.299Z,83.91
2022-09-13T11:11:27.206Z,80.98
2022-09-13T11:12:27.105Z,81.65
2022-09-13T11:13:27.025Z,82.56
2022-09-13T11:14:26.914Z,81.75
2022-09-13T11:15:26.826Z,83.26
2022-09-13T11:16:26.798Z,80.84
2022-09-13T11:17:26.636Z,82.65
2022-09-13T11:18:26.557Z,82.15
2022-09-13T11:19:26.437Z,82.86
2022-09-13T11:20:26.344Z,82.56
2022-09-13T11:21:26.239Z,82.71
2022-09-13T11:22:26.142Z,82.21
2022-09-13T11:23:26.046Z,82.11
2022-09-13T11:24:25.961Z,83.42
2022-09-13T11:25:25.839Z,79.90
2022-09-13T11:26:25.722Z,78.89
2022-09-13T11:27:25.628Z,80.30
2022-09-13T11:28:25.520Z,81.51
2022-09-13T11:29:25.438Z,80.06
2022-09-13T11:30:29.707Z,81.10
2022-09-13T11:31:25.245Z,79.86
2022-09-13T11:32:25.124Z,80.16
2022-09-13T11:33:25.023Z,79.66
2022-09-13T11:34:24.925Z,80.66
2022-09-13T11:35:24.816Z,80.16
2022-09-13T11:36:24.715Z,80.06
2022-09-13T11:37:24.614Z,78.96
2022-09-13T11:38:24.512Z,80.66
2022-09-13T11:39:24.426Z,79.76
2022-09-13T11:40:24.337Z,77.64
2022-09-13T11:41:24.207Z,78.55
2022-09-13T11:42:24.097Z,80.46
2022-09-13T11:43:23.988Z,78.65
2022-09-13T11:44:23.884Z,79.66
2022-09-13T11:45:23.787Z,79.96
2022-09-13T11:46:23.667Z,78.25
2022-09-13T11:47:23.568Z,78.35
2022-09-13T11:48:23.467Z,80.46
2022-09-13T11:49:23.359Z,78.55
2022-09-13T11:50:23.259Z,79.05
2022-09-13T11:51:23.149Z,78.45
2022-09-13T11:52:23.039Z,78.69
2022-09-13T11:53:25.918Z,77.68
2022-09-13T11:54:23.821Z,78.19
2022-09-13T11:55:22.738Z,79.39
2022-09-13T11:56:22.611Z,79.49
2022-09-13T11:57:22.512Z,77.44
2022-09-13T11:58:22.404Z,79.25
2022-09-13T11:59:22.307Z,78.25
2022-09-13T12:00:22.211Z,77.95
2022-09-13T12:01:22.085Z,79.46
2022-09-13T12:02:22.073Z,78.05
2022-09-13T12:03:22.013Z,78.45
2022-09-13T12:04:25.198Z,78.45
2022-09-13T12:05:23.201Z,79.25
2022-09-13T12:06:21.557Z,79.42
2022-09-13T12:07:21.463Z,79.02
2022-09-13T12:08:21.354Z,77.81
2022-09-13T12:09:21.263Z,78.81
2022-09-13T12:10:21.139Z,79.28
2022-09-13T12:11:21.059Z,79.08
2022-09-13T12:12:20.939Z,79.48
2022-09-13T12:13:20.850Z,78.67
2022-09-13T12:14:20.728Z,78.17
2022-09-13T12:15:20.639Z,79.08
2022-09-13T12:16:20.574Z,78.38
2022-09-13T12:17:20.436Z,78.67
2022-09-13T12:18:20.320Z,78.64
2022-09-13T12:19:20.220Z,79.24
2022-09-13T12:20:20.118Z,78.54
2022-09-13T12:21:20.030Z,77.94
2022-09-13T12:22:19.901Z,77.23
2022-09-13T12:23:19.801Z,79.14
2022-09-13T12:24:19.679Z,79.54
2022-09-13T12:25:19.580Z,78.74
2022-09-13T12:26:19.473Z,78.44
2022-09-13T12:27:19.364Z,77.33
2022-09-13T12:28:19.244Z,78.23
2022-09-13T12:29:19.144Z,77.33
2022-09-13T12:30:19.052Z,77.33
2022-09-13T12:31:18.978Z,77.33
2022-09-13T12:32:18.806Z,78.74
2022-09-13T12:33:18.706Z,79.41
2022-09-13T12:34:18.587Z,79.30
2022-09-13T12:35:18.486Z,78.70
2022-09-13T12:36:18.369Z,78.00
2022-09-13T12:37:18.279Z,79.71
2022-09-13T12:38:18.166Z,79.21
2022-09-13T12:39:18.049Z,78.50
2022-09-13T12:40:17.989Z,78.20
2022-09-13T12:41:17.829Z,78.77
2022-09-13T12:42:17.728Z,77.46
2022-09-13T12:43:17.614Z,78.06
2022-09-13T12:44:17.499Z,77.46
2022-09-13T12:45:17.401Z,76.65
2022-09-13T12:46:17.281Z,76.35
2022-09-13T12:47:17.170Z,77.96
2022-09-13T12:48:17.059Z,77.42
2022-09-13T12:49:16.933Z,78.03
2022-09-13T12:50:42.966Z,77.52
2022-09-13T12:51:17.715Z,75.62
2022-09-13T12:52:16.634Z,77.62